createdAt,value
2018-03-19T00:00:03.993Z,83.30
2018-03-19T00:02:31.657Z,83.00
2018-03-19T00:04:59.320Z,83.20
2018-03-19T00:07:26.980Z,83.70
2018-03-19T00:09:54.596Z,83.90
2018-03-19T00:12:22.241Z,84.30
2018-03-19T00:14:50.664Z,84.40
2018-03-19T00:17:19.757Z,85.50
2018-03-19T00:19:47.364Z,85.10
2018-03-19T00:22:15.797Z,85.70
2018-03-19T00:24:43.409Z,85.60
2018-03-19T00:27:11.060Z,85.50
2018-03-19T00:29:38.721Z,84.20
2018-03-19T00:32:09.743Z,87.20
2018-03-19T00:34:38.540Z,87.50
2018-03-19T00:37:06.921Z,87.10
2018-03-19T00:39:37.240Z,86.90
2018-03-19T00:42:05.616Z,86.40
2018-03-19T00:44:33.277Z,84.80
2018-03-19T00:47:01.652Z,86.40
2018-03-19T00:49:30.090Z,86.20
2018-03-19T00:51:58.344Z,86.10
2018-03-19T00:54:26.009Z,86.60
2018-03-19T00:56:53.621Z,86.10
2018-03-19T00:59:22.053Z,86.20
2018-03-19T01:01:52.828Z,86.10
2018-03-19T01:04:23.781Z,86.10
2018-03-19T01:06:51.448Z,86.10
2018-03-19T01:09:19.834Z,87.80
2018-03-19T01:11:48.254Z,88.00
2018-03-19T01:14:15.920Z,88.60
2018-03-19T01:16:43.577Z,89.50
2018-03-19T01:19:11.236Z,90.20
2018-03-19T01:21:39.502Z,90.60
2018-03-19T01:24:07.749Z,90.70
2018-03-19T01:26:35.357Z,91.30
2018-03-19T01:29:03.934Z,90.70
2018-03-19T01:31:33.191Z,91.80
2018-03-19T01:34:02.889Z,92.50
2018-03-19T01:36:33.155Z,93.10
2018-03-19T01:39:01.829Z,93.00
2018-03-19T01:41:31.153Z,92.10
2018-03-19T01:43:58.760Z,92.30
2018-03-19T01:46:26.414Z,93.50
2018-03-19T01:48:54.075Z,93.80
2018-03-19T01:51:21.894Z,93.80
2018-03-19T01:53:49.546Z,93.10
2018-03-19T01:56:17.204Z,93.00
2018-03-19T01:58:44.861Z,94.00
2018-03-19T02:01:12.469Z,94.10
2018-03-19T02:03:40.298Z,94.40
2018-03-19T02:06:07.917Z,94.50
2018-03-19T02:08:35.811Z,94.50
2018-03-19T02:11:03.435Z,94.30
2018-03-19T02:13:31.093Z,93.90
2018-03-19T02:15:58.700Z,94.10
2018-03-19T02:18:26.414Z,94.10
2018-03-19T02:20:54.088Z,94.00
2018-03-19T02:23:21.747Z,93.90
2018-03-19T02:25:49.352Z,93.80
2018-03-19T02:28:17.018Z,93.60
2018-03-19T02:30:44.634Z,93.90
2018-03-19T02:33:12.297Z,93.70
2018-03-19T02:35:39.952Z,93.80
2018-03-19T02:38:07.569Z,94.00
2018-03-19T02:40:36.038Z,93.50
2018-03-19T02:43:04.416Z,93.50
2018-03-19T02:45:32.081Z,93.40
2018-03-19T02:48:00.465Z,94.00
2018-03-19T02:50:28.897Z,93.80
2018-03-19T02:52:56.942Z,93.70
2018-03-19T02:55:24.609Z,93.70
2018-03-19T02:57:52.229Z,93.40
2018-03-19T03:00:19.952Z,93.10
2018-03-19T03:02:47.616Z,93.30
2018-03-19T03:05:15.271Z,92.00
2018-03-19T03:07:42.934Z,91.80
2018-03-19T03:10:10.552Z,92.20
2018-03-19T03:12:38.208Z,92.70
2018-03-19T03:15:06.816Z,92.40
2018-03-19T03:17:34.424Z,92.30
2018-03-19T03:20:02.076Z,92.20
2018-03-19T03:22:30.032Z,91.60
2018-03-19T03:24:57.888Z,91.80
2018-03-19T03:27:25.537Z,91.70
2018-03-19T03:29:53.184Z,91.30
2018-03-19T03:32:20.836Z,91.20
2018-03-19T03:34:48.545Z,91.30
2018-03-19T03:37:16.196Z,91.80
2018-03-19T03:39:43.848Z,91.40
2018-03-19T03:42:11.497Z,91.50
2018-03-19T03:44:39.108Z,90.80
2018-03-19T03:47:06.756Z,91.00
2018-03-19T03:49:34.387Z,90.60
2018-03-19T03:52:02.053Z,90.50
2018-03-19T03:54:30.044Z,90.60
2018-03-19T03:56:57.842Z,90.20
2018-03-19T03:59:25.539Z,90.00
2018-03-19T04:01:53.317Z,89.30
2018-03-19T04:04:20.968Z,87.80
2018-03-19T04:06:48.637Z,87.70
2018-03-19T04:09:16.302Z,88.60
2018-03-19T04:11:43.960Z,88.80
2018-03-19T04:14:11.621Z,88.90
2018-03-19T04:16:39.254Z,88.30
2018-03-19T04:19:06.913Z,88.20
2018-03-19T04:21:34.574Z,88.20
2018-03-19T04:24:02.185Z,89.10
2018-03-19T04:26:29.907Z,88.60
2018-03-19T04:28:57.561Z,88.00
2018-03-19T04:31:25.169Z,88.00
2018-03-19T04:33:52.824Z,87.60
2018-03-19T04:36:20.480Z,87.50
2018-03-19T04:38:48.088Z,87.60
2018-03-19T04:41:15.750Z,87.80
2018-03-19T04:43:43.406Z,87.50
2018-03-19T04:46:11.013Z,87.50
2018-03-19T04:48:38.698Z,86.90
2018-03-19T04:51:07.424Z,85.70
2018-03-19T04:53:35.047Z,85.60
2018-03-19T04:56:02.730Z,85.00
2018-03-19T04:58:30.351Z,85.60
2018-03-19T05:00:57.964Z,86.30
2018-03-19T05:03:25.672Z,87.80
2018-03-19T05:05:53.295Z,87.70
2018-03-19T05:08:20.946Z,87.70
2018-03-19T05:10:48.960Z,88.00
2018-03-19T05:13:16.569Z,88.20
2018-03-19T05:15:44.189Z,88.00
2018-03-19T05:18:13.688Z,87.80
2018-03-19T05:20:42.434Z,87.70
2018-03-19T05:23:10.141Z,87.60
2018-03-19T05:25:38.790Z,88.50
2018-03-19T05:28:08.266Z,88.40
2018-03-19T05:30:36.457Z,86.50
2018-03-19T05:33:04.452Z,87.30
2018-03-19T05:35:33.085Z,85.20
2018-03-19T05:38:00.744Z,85.00
2018-03-19T05:40:28.444Z,84.30
2018-03-19T05:42:56.119Z,83.60
2018-03-19T05:45:23.777Z,82.10
2018-03-19T05:47:51.452Z,81.80
2018-03-19T05:50:19.837Z,80.50
2018-03-19T05:52:48.284Z,80.70
2018-03-19T05:55:15.970Z,80.70
2018-03-19T05:57:44.352Z,81.40
2018-03-19T06:00:12.732Z,81.40
2018-03-19T06:02:41.172Z,79.70
2018-03-19T06:05:11.971Z,79.60
2018-03-19T06:07:39.674Z,79.30
2018-03-19T06:10:07.293Z,79.80
2018-03-19T06:12:34.961Z,78.30
2018-03-19T06:15:02.662Z,77.90
2018-03-19T06:17:30.337Z,78.30
2018-03-19T06:19:58.194Z,78.10
2018-03-19T06:22:25.995Z,77.90
2018-03-19T06:24:53.871Z,76.90
2018-03-19T06:27:22.425Z,74.10
2018-03-19T06:29:50.132Z,74.00
2018-03-19T06:32:17.752Z,70.60
2018-03-19T06:34:45.416Z,71.30
2018-03-19T06:37:13.041Z,71.30
2018-03-19T06:39:41.519Z,68.40
2018-03-19T06:42:11.653Z,66.30
2018-03-19T06:44:39.317Z,62.80
2018-03-19T06:47:06.929Z,61.80
2018-03-19T06:49:34.589Z,61.90
2018-03-19T06:52:02.645Z,60.20
2018-03-19T06:54:32.371Z,57.90
2018-03-19T06:57:00.013Z,57.50
2018-03-19T06:59:27.909Z,55.70
2018-03-19T07:01:55.528Z,53.40
2018-03-19T07:04:23.200Z,52.70
2018-03-19T07:06:51.625Z,52.70
2018-03-19T07:09:20.007Z,52.80
2018-03-19T07:11:47.664Z,46.80
2018-03-19T07:14:20.863Z,48.50
2018-03-19T07:16:49.035Z,45.10
2018-03-19T07:19:17.472Z,41.80
2018-03-19T07:21:45.107Z,41.80
2018-03-19T07:24:12.786Z,41.50
2018-03-19T07:26:40.437Z,39.40
2018-03-19T07:29:08.128Z,40.70
2018-03-19T07:31:35.793Z,38.80
2018-03-19T07:34:03.428Z,40.00
2018-03-19T07:36:31.358Z,40.60
2018-03-19T07:38:59.745Z,38.70
2018-03-19T07:41:27.352Z,38.60
2018-03-19T07:43:55.018Z,37.80
2018-03-19T07:46:23.772Z,33.20
2018-03-19T07:48:51.401Z,32.70
2018-03-19T07:51:19.067Z,32.10
2018-03-19T07:53:46.984Z,34.60
2018-03-19T07:56:16.363Z,30.40
2018-03-19T07:58:44.027Z,31.30
2018-03-19T08:01:11.654Z,30.00
2018-03-19T08:03:39.321Z,30.40
2018-03-19T08:06:06.937Z,30.50
2018-03-19T08:08:34.561Z,29.40
2018-03-19T08:11:02.249Z,27.00
2018-03-19T08:13:30.626Z,27.10
2018-03-19T08:15:58.284Z,28.30
2018-03-19T08:18:26.009Z,26.40
2018-03-19T08:20:53.633Z,27.90
2018-03-19T08:23:22.753Z,25.70
2018-03-19T08:25:50.436Z,24.60
2018-03-19T08:28:18.058Z,24.20
2018-03-19T08:30:45.983Z,23.50
2018-03-19T08:33:13.645Z,22.80
2018-03-19T08:35:41.306Z,21.30
2018-03-19T08:38:10.158Z,21.80
2018-03-19T08:40:37.822Z,22.00
2018-03-19T08:43:05.490Z,21.20
2018-03-19T08:45:34.394Z,20.20
2018-03-19T08:48:02.071Z,19.50
2018-03-19T08:50:29.829Z,18.00
2018-03-19T08:52:57.829Z,18.70
2018-03-19T08:55:25.493Z,19.00
2018-03-19T08:57:53.420Z,17.80
2018-03-19T09:00:21.041Z,16.20
2018-03-19T09:02:48.700Z,16.70
2018-03-19T09:05:16.364Z,16.40
2018-03-19T09:07:44.013Z,13.60
2018-03-19T09:10:12.426Z,15.10
2018-03-19T09:12:40.035Z,14.30
2018-03-19T09:15:08.447Z,15.80
2018-03-19T09:17:36.113Z,15.80
2018-03-19T09:20:03.905Z,15.20
2018-03-19T09:22:31.628Z,14.60
2018-03-19T09:24:59.290Z,12.60
2018-03-19T09:27:27.673Z,13.40
2018-03-19T09:29:55.336Z,14.80
2018-03-19T09:32:22.957Z,14.30
2018-03-19T09:34:50.797Z,14.90
2018-03-19T09:37:19.140Z,13.20
2018-03-19T09:39:46.807Z,12.60
2018-03-19T09:42:15.063Z,11.20
2018-03-19T09:44:43.404Z,11.40
2018-03-19T09:47:11.844Z,10.60
2018-03-19T09:49:39.500Z,10.40
2018-03-19T09:52:07.129Z,10.40
2018-03-19T09:54:34.804Z,12.60
2018-03-19T09:57:03.238Z,11.10
2018-03-19T09:59:32.538Z,11.60
2018-03-19T10:02:00.171Z,11.70
2018-03-19T10:04:27.844Z,10.90
2018-03-19T10:06:55.466Z,11.80
2018-03-19T10:09:23.117Z,11.90
2018-03-19T10:11:50.984Z,11.40
2018-03-19T10:14:18.774Z,11.10
2018-03-19T10:16:46.376Z,11.00
2018-03-19T10:19:14.034Z,11.90
2018-03-19T10:21:41.726Z,12.50
2018-03-19T10:24:09.367Z,12.50
2018-03-19T10:26:36.977Z,11.40
2018-03-19T10:29:04.593Z,10.60
2018-03-19T10:31:32.303Z,10.80
2018-03-19T10:33:59.886Z,10.90
2018-03-19T10:36:28.310Z,11.00
2018-03-19T10:38:56.007Z,10.80
2018-03-19T10:41:23.664Z,10.40
2018-03-19T10:43:51.618Z,10.00
2018-03-19T10:46:21.088Z,9.50
2018-03-19T10:48:49.428Z,10.40
2018-03-19T10:51:17.086Z,11.40
2018-03-19T10:53:44.696Z,10.50
2018-03-19T10:56:12.929Z,9.90
2018-03-19T10:58:40.554Z,10.40
2018-03-19T11:01:13.157Z,10.40
2018-03-19T11:03:41.197Z,8.80
2018-03-19T11:06:14.533Z,8.20
2018-03-19T11:08:47.373Z,9.70
2018-03-19T11:11:15.045Z,9.70
2018-03-19T11:13:42.656Z,10.00
2018-03-19T11:16:10.572Z,9.50
2018-03-19T11:18:38.233Z,8.90
2018-03-19T11:21:05.837Z,9.70
2018-03-19T11:23:34.475Z,7.40
2018-03-19T11:26:02.237Z,7.30
2018-03-19T11:28:29.957Z,8.60
2018-03-19T11:30:57.763Z,7.50
2018-03-19T11:33:25.413Z,8.20
2018-03-19T11:35:53.263Z,8.60
2018-03-19T11:38:21.231Z,8.30
2018-03-19T11:40:48.840Z,11.80
2018-03-19T11:43:17.266Z,10.10
2018-03-19T11:45:44.881Z,10.00
2018-03-19T11:48:12.546Z,8.70
2018-03-19T11:50:40.202Z,9.20
2018-03-19T11:53:08.620Z,8.30
2018-03-19T11:55:36.275Z,7.80
2018-03-19T11:58:04.586Z,8.60
2018-03-19T12:00:32.204Z,8.50
2018-03-19T12:03:00.730Z,8.20
2018-03-19T12:05:28.429Z,7.00
2018-03-19T12:07:56.069Z,8.20
2018-03-19T12:10:23.724Z,7.90
2018-03-19T12:12:51.329Z,7.10
2018-03-19T12:15:19.734Z,5.90
2018-03-19T12:17:48.393Z,6.30
2018-03-19T12:20:16.006Z,5.30
2018-03-19T12:22:44.296Z,6.30
2018-03-19T12:25:13.662Z,6.60
2018-03-19T12:27:41.303Z,6.30
2018-03-19T12:30:08.916Z,6.10
2018-03-19T12:32:36.570Z,6.00
2018-03-19T12:35:04.454Z,6.60
2018-03-19T12:37:32.097Z,6.30
2018-03-19T12:39:59.753Z,5.50
2018-03-19T12:42:28.510Z,6.10
2018-03-19T12:44:57.402Z,6.20
2018-03-19T12:47:25.009Z,6.30
2018-03-19T12:49:52.676Z,6.30
2018-03-19T12:52:20.280Z,6.00
2018-03-19T12:54:47.936Z,5.50
2018-03-19T12:57:18.468Z,4.60
2018-03-19T12:59:46.436Z,7.00
2018-03-19T13:02:14.089Z,6.30
2018-03-19T13:04:41.737Z,5.80
2018-03-19T13:07:09.517Z,6.00
2018-03-19T13:09:37.176Z,5.90
2018-03-19T13:12:04.945Z,6.00
2018-03-19T13:14:33.293Z,6.40
2018-03-19T13:17:00.931Z,5.50
2018-03-19T13:19:28.585Z,5.50
2018-03-19T13:21:56.257Z,6.40
2018-03-19T13:24:26.062Z,6.20
2018-03-19T13:26:53.664Z,7.30
2018-03-19T13:29:21.368Z,5.80
2018-03-19T13:31:49.025Z,5.40
2018-03-19T13:34:16.634Z,6.10
2018-03-19T13:36:44.504Z,5.90
2018-03-19T13:39:12.267Z,6.50
2018-03-19T13:41:39.936Z,6.90
2018-03-19T13:44:07.710Z,6.20
2018-03-19T13:46:36.045Z,5.60
2018-03-19T13:49:03.695Z,7.20
2018-03-19T13:51:31.336Z,6.30
2018-03-19T13:54:00.295Z,7.30
2018-03-19T13:56:28.058Z,7.10
2018-03-19T13:58:55.663Z,6.30
2018-03-19T14:01:23.321Z,7.30
2018-03-19T14:03:50.930Z,4.80
2018-03-19T14:06:19.134Z,7.40
2018-03-19T14:08:47.550Z,6.50
2018-03-19T14:11:15.165Z,6.50
2018-03-19T14:13:43.061Z,6.10
2018-03-19T14:16:10.870Z,5.70
2018-03-19T14:18:38.492Z,7.00
2018-03-19T14:21:06.150Z,6.10
2018-03-19T14:23:34.775Z,5.20
2018-03-19T14:26:02.417Z,6.40
2018-03-19T14:28:30.030Z,5.50
2018-03-19T14:30:57.687Z,5.00
2018-03-19T14:33:26.063Z,5.40
2018-03-19T14:35:54.508Z,6.60
2018-03-19T14:38:22.137Z,6.40
2018-03-19T14:40:49.793Z,7.10
2018-03-19T14:43:17.408Z,8.20
2018-03-19T14:45:45.150Z,7.50
2018-03-19T14:48:12.761Z,7.00
2018-03-19T14:50:40.391Z,6.30
2018-03-19T14:53:08.829Z,7.00
2018-03-19T14:55:36.474Z,6.20
2018-03-19T14:58:04.124Z,6.00
2018-03-19T15:00:31.729Z,6.20
2018-03-19T15:02:59.379Z,7.80
2018-03-19T15:05:27.033Z,7.90
2018-03-19T15:07:54.718Z,7.30
2018-03-19T15:10:22.503Z,8.20
2018-03-19T15:12:50.940Z,7.90
2018-03-19T15:15:18.624Z,7.70
2018-03-19T15:17:46.311Z,7.90
2018-03-19T15:20:13.917Z,7.70
2018-03-19T15:22:41.536Z,9.20
2018-03-19T15:25:09.873Z,9.70
2018-03-19T15:27:37.484Z,8.10
2018-03-19T15:30:05.100Z,6.60
2018-03-19T15:32:34.270Z,7.70
2018-03-19T15:35:01.886Z,6.80
2018-03-19T15:37:29.497Z,8.40
2018-03-19T15:39:57.150Z,7.90
2018-03-19T15:42:24.753Z,8.30
2018-03-19T15:44:52.373Z,8.80
2018-03-19T15:47:20.027Z,7.90
2018-03-19T15:49:47.632Z,9.40
2018-03-19T15:52:16.051Z,8.50
2018-03-19T15:54:43.688Z,8.30
2018-03-19T15:57:11.336Z,9.30
2018-03-19T15:59:38.990Z,9.70
2018-03-19T16:02:07.410Z,9.30
2018-03-19T16:04:35.057Z,9.00
2018-03-19T16:07:02.661Z,9.50
2018-03-19T16:09:30.317Z,9.90
2018-03-19T16:11:57.932Z,11.00
2018-03-19T16:14:25.537Z,9.30
2018-03-19T16:16:53.185Z,9.70
2018-03-19T16:19:21.396Z,9.70
2018-03-19T16:21:49.798Z,9.50
2018-03-19T16:24:17.436Z,9.70
2018-03-19T16:26:45.281Z,10.80
2018-03-19T16:29:12.893Z,11.00
2018-03-19T16:31:40.553Z,11.50
2018-03-19T16:34:08.165Z,12.00
2018-03-19T16:36:35.818Z,10.60
2018-03-19T16:39:03.436Z,10.50
2018-03-19T16:41:31.085Z,11.20
2018-03-19T16:43:58.693Z,11.30
2018-03-19T16:46:26.349Z,12.10
2018-03-19T16:48:53.965Z,11.80
2018-03-19T16:51:21.617Z,13.10
2018-03-19T16:53:49.273Z,11.10
2018-03-19T16:56:17.985Z,10.20
2018-03-19T16:58:46.165Z,11.30
2018-03-19T17:01:13.780Z,10.10
2018-03-19T17:03:44.419Z,11.80
2018-03-19T17:06:12.302Z,11.70
2018-03-19T17:08:39.912Z,12.00
2018-03-19T17:11:07.565Z,13.40
2018-03-19T17:13:35.193Z,14.00
2018-03-19T17:16:03.108Z,13.30
2018-03-19T17:18:30.722Z,14.60
2018-03-19T17:20:58.376Z,15.90
2018-03-19T17:23:26.159Z,14.40
2018-03-19T17:25:54.166Z,14.10
2018-03-19T17:28:22.208Z,14.90
2018-03-19T17:30:49.823Z,14.70
2018-03-19T17:33:18.313Z,15.40
2018-03-19T17:35:49.147Z,15.20
2018-03-19T17:38:18.914Z,14.00
2018-03-19T17:40:48.489Z,14.90
2018-03-19T17:43:18.022Z,15.00
2018-03-19T17:45:45.781Z,15.00
2018-03-19T17:48:13.690Z,16.50
2018-03-19T17:50:41.753Z,16.40
2018-03-19T17:53:09.376Z,16.50
2018-03-19T17:55:38.605Z,18.70
2018-03-19T17:58:06.951Z,17.60
2018-03-19T18:00:36.362Z,18.40
2018-03-19T18:03:04.104Z,19.30
2018-03-19T18:05:32.175Z,19.30
2018-03-19T18:08:00.926Z,19.60
2018-03-19T18:10:28.705Z,19.40
2018-03-19T18:12:57.388Z,19.20
2018-03-19T18:15:25.629Z,17.80
2018-03-19T18:17:53.288Z,18.30
2018-03-19T18:20:21.298Z,18.80
2018-03-19T18:22:48.955Z,18.90
2018-03-19T18:25:17.800Z,20.40
2018-03-19T18:27:48.616Z,21.90
2018-03-19T18:30:16.325Z,22.00
2018-03-19T18:32:44.569Z,22.70
2018-03-19T18:35:12.176Z,22.10
2018-03-19T18:37:39.837Z,23.60
2018-03-19T18:40:08.062Z,23.20
2018-03-19T18:42:35.715Z,23.80
2018-03-19T18:45:04.114Z,24.10
2018-03-19T18:47:31.818Z,23.50
2018-03-19T18:49:59.433Z,25.00
2018-03-19T18:52:27.085Z,25.60
2018-03-19T18:54:54.799Z,26.00
2018-03-19T18:57:23.724Z,26.50
2018-03-19T18:59:52.417Z,27.60
2018-03-19T19:02:20.061Z,26.40
2018-03-19T19:04:48.445Z,29.30
2018-03-19T19:07:16.141Z,29.30
2018-03-19T19:09:43.924Z,29.30
2018-03-19T19:12:11.589Z,30.70
2018-03-19T19:14:39.204Z,30.10
2018-03-19T19:17:06.813Z,30.80
2018-03-19T19:19:34.477Z,31.40
2018-03-19T19:22:02.967Z,32.10
2018-03-19T19:24:30.830Z,31.70
2018-03-19T19:26:58.756Z,32.90
2018-03-19T19:29:27.303Z,33.20
2018-03-19T19:31:54.929Z,33.30
2018-03-19T19:34:22.576Z,33.10
2018-03-19T19:36:50.188Z,32.50
2018-03-19T19:39:18.620Z,33.50
2018-03-19T19:41:46.236Z,33.60
2018-03-19T19:44:14.975Z,33.80
2018-03-19T19:46:42.593Z,33.10
2018-03-19T19:49:10.427Z,33.70
2018-03-19T19:51:38.472Z,34.20
2018-03-19T19:54:06.128Z,35.30
2018-03-19T19:56:33.781Z,34.80
2018-03-19T19:59:01.438Z,34.00
2018-03-19T20:01:30.068Z,34.70
2018-03-19T20:03:59.391Z,35.30
2018-03-19T20:06:27.047Z,35.10
2018-03-19T20:08:54.677Z,34.40
2018-03-19T20:11:22.509Z,33.20
2018-03-19T20:13:50.130Z,32.00
2018-03-19T20:16:17.785Z,32.40
2018-03-19T20:18:45.397Z,31.90
2018-03-19T20:21:13.055Z,31.50
2018-03-19T20:23:40.676Z,30.90
2018-03-19T20:26:09.344Z,28.40
2018-03-19T20:28:36.957Z,28.10
2018-03-19T20:31:04.708Z,27.70
2018-03-19T20:33:32.372Z,27.70
2018-03-19T20:35:59.978Z,26.40
2018-03-19T20:38:29.651Z,25.10
2018-03-19T20:40:58.121Z,25.10
2018-03-19T20:43:25.748Z,25.20
2018-03-19T20:45:53.714Z,24.90
2018-03-19T20:48:21.380Z,24.90
2018-03-19T20:50:49.001Z,25.30
2018-03-19T20:53:16.948Z,24.50
2018-03-19T20:55:46.060Z,24.60
2018-03-19T20:58:14.344Z,24.50
2018-03-19T21:00:42.766Z,23.90
2018-03-19T21:03:10.412Z,24.00
2018-03-19T21:05:38.210Z,24.30
2018-03-19T21:08:06.854Z,24.00
2018-03-19T21:10:35.580Z,23.70
2018-03-19T21:13:03.502Z,24.10
2018-03-19T21:15:31.509Z,23.10
2018-03-19T21:18:00.133Z,22.80
2018-03-19T21:20:28.529Z,24.80
2018-03-19T21:22:56.183Z,24.90
2018-03-19T21:25:25.374Z,24.00
2018-03-19T21:27:53.025Z,25.00
2018-03-19T21:30:21.413Z,26.20
2018-03-19T21:32:49.872Z,27.00
2018-03-19T21:35:17.510Z,26.90
2018-03-19T21:37:45.401Z,28.40
2018-03-19T21:40:13.054Z,29.70
2018-03-19T21:42:40.681Z,31.60
2018-03-19T21:45:09.824Z,33.10
2018-03-19T21:47:38.287Z,35.50
2018-03-19T21:50:06.932Z,36.50
2018-03-19T21:52:35.135Z,36.70
2018-03-19T21:55:02.785Z,37.10
2018-03-19T21:57:30.553Z,38.80
2018-03-19T21:59:59.222Z,40.10
2018-03-19T22:02:28.536Z,39.10
2018-03-19T22:04:56.149Z,40.80
2018-03-19T22:07:24.662Z,43.20
2018-03-19T22:09:52.279Z,44.50
2018-03-19T22:12:20.488Z,46.70
2018-03-19T22:14:48.106Z,46.10
2018-03-19T22:17:16.859Z,51.40
2018-03-19T22:19:44.712Z,55.10
2018-03-19T22:22:12.461Z,59.60
2018-03-19T22:24:40.176Z,60.70
2018-03-19T22:27:10.472Z,61.20
2018-03-19T22:29:38.207Z,63.40
2018-03-19T22:32:05.837Z,68.10
2018-03-19T22:34:33.490Z,72.00
2018-03-19T22:37:01.429Z,77.20
2018-03-19T22:39:29.904Z,86.20
2018-03-19T22:41:57.578Z,90.10
2018-03-19T22:44:26.013Z,93.90
2018-03-19T22:46:53.634Z,93.70
2018-03-19T22:49:22.649Z,94.70
2018-03-19T22:51:50.443Z,95.70
2018-03-19T22:54:18.086Z,96.50
2018-03-19T22:56:47.044Z,97.70
2018-03-19T22:59:15.053Z,99.20
2018-03-19T23:01:43.469Z,99.90
2018-03-19T23:04:12.313Z,99.90
2018-03-19T23:06:40.183Z,99.90
2018-03-19T23:09:07.809Z,99.90
2018-03-19T23:11:35.479Z,99.90
2018-03-19T23:14:05.290Z,99.90
2018-03-19T23:16:32.941Z,99.90
2018-03-19T23:19:01.377Z,99.90
2018-03-19T23:21:29.029Z,99.90
2018-03-19T23:23:58.038Z,99.90
2018-03-19T23:26:26.717Z,99.90
2018-03-19T23:28:54.544Z,99.90
2018-03-19T23:31:22.210Z,99.90
2018-03-19T23:33:49.873Z,99.90
2018-03-19T23:36:17.496Z,99.90
2018-03-19T23:38:45.172Z,99.90
2018-03-19T23:41:12.783Z,99.90
2018-03-19T23:43:40.444Z,99.90
2018-03-19T23:46:08.093Z,99.90
2018-03-19T23:48:36.509Z,99.90
2018-03-19T23:51:04.424Z,99.90
2018-03-19T23:53:32.076Z,99.90
2018-03-19T23:55:59.697Z,99.90
2018-03-19T23:58:27.410Z,99.90
